createdAt,value
2023-02-19T00:01:53.036Z,10.40
2023-02-19T00:03:57.652Z,10.46
2023-02-19T00:06:02.716Z,10.61
2023-02-19T00:08:05.784Z,10.61
2023-02-19T00:10:09.134Z,10.51
2023-02-19T00:12:11.734Z,10.48
2023-02-19T00:14:18.751Z,10.55
2023-02-19T00:16:23.892Z,10.40
2023-02-19T00:18:26.487Z,10.45
2023-02-19T00:20:29.130Z,10.47
2023-02-19T00:22:31.726Z,10.58
2023-02-19T00:24:34.407Z,10.44
2023-02-19T00:26:39.886Z,10.51
2023-02-19T00:28:42.581Z,10.49
2023-02-19T00:30:46.754Z,10.43
2023-02-19T00:32:51.556Z,10.42
2023-02-19T00:34:54.215Z,10.48
2023-02-19T00:36:56.871Z,10.61
2023-02-19T00:38:59.565Z,10.53
2023-02-19T00:41:18.860Z,10.55
2023-02-19T00:43:21.743Z,10.60
2023-02-19T00:45:24.435Z,10.65
2023-02-19T00:47:28.370Z,10.49
2023-02-19T00:49:30.967Z,10.68
2023-02-19T00:51:35.490Z,10.58
2023-02-19T00:53:38.125Z,10.52
2023-02-19T00:55:40.721Z,10.68
2023-02-19T00:57:43.425Z,10.49
2023-02-19T00:59:46.043Z,10.39
2023-02-19T01:01:49.517Z,10.45
2023-02-19T01:03:53.637Z,10.35
2023-02-19T01:05:56.476Z,10.44
2023-02-19T01:07:59.739Z,10.30
2023-02-19T01:10:02.346Z,10.37
2023-02-19T01:12:05.280Z,10.41
2023-02-19T01:14:07.901Z,10.30
2023-02-19T01:16:14.584Z,10.30
2023-02-19T01:18:17.044Z,10.39
2023-02-19T01:20:21.055Z,10.31
2023-02-19T01:22:23.623Z,10.41
2023-02-19T01:24:26.247Z,10.28
2023-02-19T01:26:31.098Z,10.30
2023-02-19T01:28:33.874Z,10.31
2023-02-19T01:30:37.595Z,10.20
2023-02-19T01:32:41.124Z,10.26
2023-02-19T01:34:43.766Z,10.25
2023-02-19T01:36:47.809Z,10.28
2023-02-19T01:38:50.734Z,10.34
2023-02-19T01:40:57.667Z,10.25
2023-02-19T01:43:00.293Z,10.19
2023-02-19T01:45:26.253Z,10.02
2023-02-19T01:47:28.919Z,10.03
2023-02-19T01:49:34.103Z,10.10
2023-02-19T01:51:39.456Z,10.01
2023-02-19T01:53:46.833Z,10.02
2023-02-19T01:55:54.266Z,10.02
2023-02-19T01:57:57.341Z,10.04
2023-02-19T02:00:04.497Z,9.92
2023-02-19T02:02:07.922Z,10.00
2023-02-19T02:04:13.038Z,10.02
2023-02-19T02:06:22.341Z,9.97
2023-02-19T02:08:44.148Z,10.04
2023-02-19T02:10:48.380Z,9.88
2023-02-19T02:12:53.372Z,9.91
2023-02-19T02:14:55.991Z,10.03
2023-02-19T02:17:09.376Z,9.84
2023-02-19T02:19:30.953Z,9.87
2023-02-19T02:21:57.345Z,9.91
2023-02-19T02:24:17.606Z,9.85
2023-02-19T02:26:36.558Z,9.84
2023-02-19T02:29:13.573Z,9.78
2023-02-19T02:31:20.651Z,9.82
2023-02-19T02:33:32.954Z,9.57
2023-02-19T02:35:41.379Z,9.62
2023-02-19T02:37:46.036Z,9.63
2023-02-19T02:39:49.749Z,9.65
2023-02-19T02:42:18.088Z,9.55
2023-02-19T02:44:20.688Z,9.44
2023-02-19T02:46:32.914Z,9.53
2023-02-19T02:48:39.822Z,9.66
2023-02-19T02:50:46.952Z,9.50
2023-02-19T02:53:10.030Z,9.54
2023-02-19T02:55:13.103Z,9.54
2023-02-19T02:57:17.788Z,9.58
2023-02-19T02:59:24.656Z,9.62
2023-02-19T03:01:50.654Z,9.57
2023-02-19T03:03:58.796Z,9.65
2023-02-19T03:06:04.692Z,9.66
2023-02-19T03:08:10.860Z,9.55
2023-02-19T03:10:18.074Z,9.67
2023-02-19T03:12:39.387Z,9.70
2023-02-19T03:14:59.732Z,9.54
2023-02-19T03:17:27.593Z,9.53
2023-02-19T03:19:32.598Z,9.32
2023-02-19T03:21:38.304Z,9.15
2023-02-19T03:23:58.638Z,9.11
2023-02-19T03:26:04.292Z,9.04
2023-02-19T03:28:11.064Z,8.90
2023-02-19T03:30:16.522Z,8.93
2023-02-19T03:32:25.017Z,8.84
2023-02-19T03:34:32.193Z,8.87
2023-02-19T03:36:40.745Z,8.72
2023-02-19T03:38:49.105Z,8.70
2023-02-19T03:40:57.790Z,8.83
2023-02-19T03:43:09.061Z,8.76
2023-02-19T03:45:25.776Z,8.83
2023-02-19T03:47:32.535Z,8.85
2023-02-19T03:49:40.683Z,8.69
2023-02-19T03:51:46.882Z,8.66
2023-02-19T03:53:59.455Z,8.62
2023-02-19T03:56:10.113Z,8.57
2023-02-19T03:58:18.197Z,8.58
2023-02-19T04:00:28.370Z,8.58
2023-02-19T04:02:36.614Z,8.65
2023-02-19T04:04:44.820Z,8.59
2023-02-19T04:06:55.241Z,8.71
2023-02-19T04:09:01.201Z,8.68
2023-02-19T04:11:05.100Z,8.75
2023-02-19T04:13:12.694Z,8.83
2023-02-19T04:15:20.627Z,8.76
2023-02-19T04:17:27.725Z,8.82
2023-02-19T04:19:35.718Z,8.72
2023-02-19T04:21:40.626Z,8.77
2023-02-19T04:23:45.650Z,8.65
2023-02-19T04:25:51.969Z,8.74
2023-02-19T04:27:54.816Z,8.73
2023-02-19T04:29:57.545Z,8.65
2023-02-19T04:32:00.244Z,8.80
2023-02-19T04:34:03.741Z,8.68
2023-02-19T04:36:10.863Z,8.80
2023-02-19T04:38:14.285Z,8.77
2023-02-19T04:40:16.952Z,8.80
2023-02-19T04:42:19.536Z,8.82
2023-02-19T04:44:22.594Z,8.74
2023-02-19T04:46:25.219Z,8.72
2023-02-19T04:48:27.817Z,8.89
2023-02-19T04:50:30.484Z,8.71
2023-02-19T04:52:35.428Z,8.81
2023-02-19T04:54:38.180Z,8.74
2023-02-19T04:56:40.866Z,8.87
2023-02-19T04:58:44.513Z,8.93
2023-02-19T05:00:53.247Z,8.89
2023-02-19T05:02:55.883Z,8.93
2023-02-19T05:04:58.499Z,9.02
2023-02-19T05:07:01.210Z,8.95
2023-02-19T05:09:05.233Z,9.00
2023-02-19T05:11:10.626Z,8.93
2023-02-19T05:13:13.482Z,8.79
2023-02-19T05:15:16.364Z,9.06
2023-02-19T05:17:19.126Z,9.03
2023-02-19T05:19:21.803Z,9.08
2023-02-19T05:21:24.454Z,9.03
2023-02-19T05:23:28.286Z,9.05
2023-02-19T05:25:32.250Z,8.93
2023-02-19T05:27:34.869Z,8.91
2023-02-19T05:29:37.533Z,8.98
2023-02-19T05:31:40.427Z,8.95
2023-02-19T05:33:44.150Z,8.86
2023-02-19T05:35:48.705Z,9.07
2023-02-19T05:37:51.326Z,9.12
2023-02-19T05:39:54.008Z,9.01
2023-02-19T05:41:57.957Z,8.98
2023-02-19T05:44:00.657Z,9.16
2023-02-19T05:46:03.326Z,9.08
2023-02-19T05:48:06.745Z,8.96
2023-02-19T05:50:09.502Z,8.94
2023-02-19T05:52:12.142Z,8.86
2023-02-19T05:54:14.803Z,8.72
2023-02-19T05:56:34.094Z,8.96
2023-02-19T05:58:38.079Z,8.94
2023-02-19T06:00:40.771Z,8.93
2023-02-19T06:02:43.493Z,8.98
2023-02-19T06:04:46.125Z,9.00
2023-02-19T06:06:49.532Z,9.06
2023-02-19T06:08:52.704Z,9.13
2023-02-19T06:10:55.301Z,8.98
2023-02-19T06:12:57.912Z,8.81
2023-02-19T06:15:01.940Z,8.88
2023-02-19T06:17:04.548Z,8.86
2023-02-19T06:19:07.200Z,8.78
2023-02-19T06:21:12.244Z,8.66
2023-02-19T06:23:15.614Z,8.52
2023-02-19T06:25:18.443Z,8.29
2023-02-19T06:27:21.015Z,8.36
2023-02-19T06:29:23.858Z,8.40
2023-02-19T06:31:27.919Z,8.47
2023-02-19T06:33:30.663Z,8.42
2023-02-19T06:35:33.314Z,8.41
2023-02-19T06:37:35.883Z,8.48
2023-02-19T06:39:38.727Z,8.45
2023-02-19T06:41:41.322Z,8.24
2023-02-19T06:43:43.932Z,8.35
2023-02-19T06:45:46.768Z,8.34
2023-02-19T06:47:50.675Z,8.41
2023-02-19T06:49:53.292Z,8.39
2023-02-19T06:51:55.959Z,8.45
2023-02-19T06:53:58.618Z,8.29
2023-02-19T06:56:03.385Z,8.42
2023-02-19T06:58:05.953Z,8.41
2023-02-19T07:00:10.223Z,8.52
2023-02-19T07:02:13.397Z,8.45
2023-02-19T07:04:17.475Z,8.59
2023-02-19T07:06:20.491Z,8.64
2023-02-19T07:08:23.158Z,8.69
2023-02-19T07:10:25.769Z,8.78
2023-02-19T07:12:28.354Z,8.78
2023-02-19T07:14:32.320Z,8.75
2023-02-19T07:16:35.776Z,8.60
2023-02-19T07:18:39.370Z,8.66
2023-02-19T07:20:43.289Z,8.82
2023-02-19T07:22:45.854Z,8.55
2023-02-19T07:24:48.504Z,8.61
2023-02-19T07:26:51.255Z,8.55
2023-02-19T07:28:54.275Z,8.55
2023-02-19T07:31:01.746Z,8.49
2023-02-19T07:33:04.540Z,8.63
2023-02-19T07:35:08.120Z,8.58
2023-02-19T07:37:12.138Z,8.41
2023-02-19T07:39:15.611Z,8.55
2023-02-19T07:41:18.186Z,8.52
2023-02-19T07:43:21.251Z,8.58
2023-02-19T07:45:23.957Z,8.54
2023-02-19T07:47:26.702Z,8.65
2023-02-19T07:49:29.444Z,8.64
2023-02-19T07:51:32.155Z,8.66
2023-02-19T07:53:36.553Z,8.74
2023-02-19T07:55:39.159Z,8.84
2023-02-19T07:57:41.835Z,8.85
2023-02-19T07:59:44.537Z,8.89
2023-02-19T08:02:04.642Z,9.06
2023-02-19T08:04:07.395Z,9.10
2023-02-19T08:06:12.013Z,9.01
2023-02-19T08:08:15.837Z,8.89
2023-02-19T08:10:37.549Z,9.05
2023-02-19T08:12:57.925Z,9.04
2023-02-19T08:15:00.601Z,9.06
2023-02-19T08:17:03.312Z,9.09
2023-02-19T08:19:06.154Z,9.13
2023-02-19T08:21:09.114Z,9.27
2023-02-19T08:23:12.947Z,9.16
2023-02-19T08:25:15.628Z,9.27
2023-02-19T08:27:19.541Z,9.24
2023-02-19T08:29:22.205Z,9.24
2023-02-19T08:31:25.033Z,9.30
2023-02-19T08:33:27.714Z,9.05
2023-02-19T08:35:30.590Z,9.03
2023-02-19T08:37:33.231Z,8.90
2023-02-19T08:39:35.783Z,8.78
2023-02-19T08:41:38.462Z,9.07
2023-02-19T08:43:43.525Z,9.14
2023-02-19T08:45:47.319Z,8.92
2023-02-19T08:47:49.952Z,8.99
2023-02-19T08:49:52.592Z,9.04
2023-02-19T08:51:55.257Z,8.96
2023-02-19T08:53:57.955Z,9.08
2023-02-19T08:56:00.569Z,8.94
2023-02-19T08:58:03.146Z,8.87
2023-02-19T09:00:09.037Z,8.98
2023-02-19T09:02:12.720Z,8.90
2023-02-19T09:04:15.447Z,8.72
2023-02-19T09:06:19.867Z,8.87
2023-02-19T09:08:22.530Z,8.91
2023-02-19T09:10:25.179Z,8.97
2023-02-19T09:12:27.819Z,8.85
2023-02-19T09:14:32.778Z,8.84
2023-02-19T09:16:37.458Z,9.01
2023-02-19T09:18:40.203Z,9.07
2023-02-19T09:20:42.895Z,9.02
2023-02-19T09:22:45.511Z,9.06
2023-02-19T09:24:48.579Z,8.99
2023-02-19T09:26:51.714Z,9.06
2023-02-19T09:28:54.338Z,9.09
2023-02-19T09:30:57.032Z,9.07
2023-02-19T09:33:01.004Z,9.32
2023-02-19T09:35:03.667Z,9.38
2023-02-19T09:37:06.682Z,9.28
2023-02-19T09:39:12.558Z,9.21
2023-02-19T09:41:23.418Z,9.37
2023-02-19T09:43:29.729Z,9.31
2023-02-19T09:45:32.542Z,9.37
2023-02-19T09:47:35.926Z,9.19
2023-02-19T09:49:43.542Z,9.52
2023-02-19T09:51:50.117Z,9.58
2023-02-19T09:53:54.323Z,9.35
2023-02-19T09:55:57.774Z,9.57
2023-02-19T09:58:03.168Z,9.60
2023-02-19T10:00:14.129Z,9.41
2023-02-19T10:02:18.977Z,9.53
2023-02-19T10:04:21.640Z,9.52
2023-02-19T10:06:29.757Z,9.51
2023-02-19T10:08:34.584Z,9.73
2023-02-19T10:10:38.356Z,9.76
2023-02-19T10:12:44.144Z,10.05
2023-02-19T10:14:50.277Z,9.94
2023-02-19T10:16:54.024Z,9.66
2023-02-19T10:18:57.477Z,9.86
2023-02-19T10:21:00.086Z,9.97
2023-02-19T10:23:06.546Z,9.90
2023-02-19T10:25:14.894Z,10.12
2023-02-19T10:27:17.590Z,9.87
2023-02-19T10:29:21.592Z,10.05
2023-02-19T10:31:26.432Z,9.95
2023-02-19T10:33:29.298Z,9.99
2023-02-19T10:35:37.005Z,9.62
2023-02-19T10:37:44.993Z,9.57
2023-02-19T10:39:51.514Z,9.61
2023-02-19T10:41:54.940Z,10.21
2023-02-19T10:44:04.204Z,10.07
2023-02-19T10:46:09.081Z,10.02
2023-02-19T10:48:25.617Z,10.22
2023-02-19T10:50:32.579Z,9.88
2023-02-19T10:52:36.652Z,9.91
2023-02-19T10:54:40.961Z,9.95
2023-02-19T10:56:45.243Z,10.38
2023-02-19T10:58:47.950Z,10.34
2023-02-19T11:01:09.411Z,11.06
2023-02-19T11:03:21.149Z,10.64
2023-02-19T11:05:24.238Z,10.45
2023-02-19T11:07:26.913Z,10.55
2023-02-19T11:09:35.816Z,10.23
2023-02-19T11:11:41.017Z,10.76
2023-02-19T11:13:45.606Z,11.06
2023-02-19T11:15:53.214Z,10.68
2023-02-19T11:17:58.493Z,10.32
2023-02-19T11:20:06.057Z,10.25
2023-02-19T11:22:28.817Z,10.17
2023-02-19T11:24:35.105Z,10.14
2023-02-19T11:26:38.201Z,10.21
2023-02-19T11:28:41.464Z,10.21
2023-02-19T11:30:47.126Z,10.44
2023-02-19T11:32:49.802Z,10.25
2023-02-19T11:34:52.896Z,10.35
2023-02-19T11:37:10.145Z,10.43
2023-02-19T11:39:22.898Z,10.72
2023-02-19T11:41:39.920Z,10.45
2023-02-19T11:44:01.056Z,10.26
2023-02-19T11:46:10.506Z,10.61
2023-02-19T11:48:42.008Z,10.56
2023-02-19T11:50:58.470Z,10.47
2023-02-19T11:53:14.785Z,10.50
2023-02-19T11:55:23.091Z,10.39
2023-02-19T11:57:39.180Z,10.23
2023-02-19T11:59:49.382Z,10.31
2023-02-19T12:02:07.348Z,9.99
2023-02-19T12:04:42.346Z,10.20
2023-02-19T12:06:54.769Z,10.43
2023-02-19T12:09:21.000Z,10.62
2023-02-19T12:11:42.618Z,10.58
2023-02-19T12:14:07.074Z,10.03
2023-02-19T12:16:16.881Z,10.67
2023-02-19T12:18:43.697Z,10.48
2023-02-19T12:20:58.219Z,10.28
2023-02-19T12:23:21.918Z,10.59
2023-02-19T12:25:39.441Z,10.48
2023-02-19T12:27:56.469Z,10.70
2023-02-19T12:30:26.222Z,10.45
2023-02-19T12:32:50.606Z,10.58
2023-02-19T12:35:32.242Z,10.53
2023-02-19T12:37:45.629Z,10.41
2023-02-19T12:40:04.654Z,10.62
2023-02-19T12:42:14.006Z,10.40
2023-02-19T12:44:21.738Z,10.66
2023-02-19T12:46:30.385Z,10.55
2023-02-19T12:48:38.100Z,10.49
2023-02-19T12:50:41.632Z,10.55
2023-02-19T12:52:50.826Z,10.64
2023-02-19T12:54:55.964Z,10.87
2023-02-19T12:57:04.847Z,10.93
2023-02-19T12:59:13.522Z,11.14
2023-02-19T13:01:21.920Z,10.78
2023-02-19T13:03:31.621Z,10.65
2023-02-19T13:05:44.524Z,11.27
2023-02-19T13:07:59.716Z,11.36
2023-02-19T13:10:15.387Z,11.42
2023-02-19T13:12:22.502Z,11.15
2023-02-19T13:14:29.586Z,11.08
2023-02-19T13:16:35.059Z,10.95
2023-02-19T13:18:43.071Z,10.63
2023-02-19T13:20:48.757Z,10.59
2023-02-19T13:23:18.607Z,10.69
2023-02-19T13:25:23.373Z,10.46
2023-02-19T13:27:48.609Z,10.57
2023-02-19T13:30:04.123Z,10.55
2023-02-19T13:32:37.666Z,10.69
2023-02-19T13:34:54.693Z,10.82
2023-02-19T13:36:57.861Z,10.44
2023-02-19T13:39:05.520Z,10.85
2023-02-19T13:41:18.854Z,10.42
2023-02-19T13:43:27.027Z,10.54
2023-02-19T13:45:35.580Z,10.20
2023-02-19T13:47:50.694Z,10.26
2023-02-19T13:49:53.429Z,10.16
2023-02-19T13:51:57.479Z,10.37
2023-02-19T13:54:02.697Z,10.46
2023-02-19T13:56:39.856Z,10.30
2023-02-19T13:59:01.398Z,10.20
2023-02-19T14:01:05.621Z,10.09
2023-02-19T14:03:28.808Z,10.14
2023-02-19T14:05:58.789Z,10.21
2023-02-19T14:08:01.593Z,10.38
2023-02-19T14:10:05.925Z,10.43
2023-02-19T14:12:21.345Z,10.33
2023-02-19T14:14:29.819Z,10.24
2023-02-19T14:16:49.468Z,10.46
2023-02-19T14:18:52.749Z,10.21
2023-02-19T14:21:08.719Z,10.36
2023-02-19T14:23:17.204Z,10.47
2023-02-19T14:25:29.071Z,10.38
2023-02-19T14:27:33.156Z,10.18
2023-02-19T14:29:35.972Z,10.19
2023-02-19T14:31:39.375Z,10.32
2023-02-19T14:33:47.347Z,10.32
2023-02-19T14:35:54.969Z,10.44
2023-02-19T14:37:59.278Z,10.38
2023-02-19T14:40:02.285Z,10.43
2023-02-19T14:42:09.637Z,10.17
2023-02-19T14:44:19.130Z,10.05
2023-02-19T14:46:30.084Z,9.99
2023-02-19T14:48:37.656Z,10.26
2023-02-19T14:50:41.584Z,9.92
2023-02-19T14:52:47.220Z,10.08
2023-02-19T14:54:55.173Z,10.21
2023-02-19T14:56:59.158Z,10.16
2023-02-19T14:59:25.904Z,10.32
2023-02-19T15:01:29.480Z,10.22
2023-02-19T15:03:35.113Z,9.98
2023-02-19T15:05:38.357Z,9.97
2023-02-19T15:07:43.065Z,9.93
2023-02-19T15:09:48.734Z,10.12
2023-02-19T15:11:51.391Z,10.03
2023-02-19T15:13:58.384Z,10.02
2023-02-19T15:16:02.531Z,9.77
2023-02-19T15:18:06.119Z,10.09
2023-02-19T15:20:12.907Z,9.95
2023-02-19T15:22:19.939Z,9.91
2023-02-19T15:24:22.785Z,9.96
2023-02-19T15:26:31.045Z,9.73
2023-02-19T15:28:34.660Z,9.73
2023-02-19T15:30:37.489Z,10.01
2023-02-19T15:32:41.576Z,10.07
2023-02-19T15:34:54.596Z,9.93
2023-02-19T15:36:59.537Z,9.66
2023-02-19T15:39:03.526Z,9.90
2023-02-19T15:41:06.414Z,9.88
2023-02-19T15:43:21.590Z,10.06
2023-02-19T15:45:27.724Z,9.71
2023-02-19T15:47:38.227Z,9.85
2023-02-19T15:49:50.396Z,9.65
2023-02-19T15:51:56.950Z,9.81
2023-02-19T15:54:08.420Z,9.82
2023-02-19T15:56:16.874Z,9.76
2023-02-19T15:58:27.801Z,9.67
2023-02-19T16:00:38.301Z,9.67
2023-02-19T16:02:41.603Z,9.65
2023-02-19T16:04:46.578Z,9.78
2023-02-19T16:06:57.772Z,9.67
2023-02-19T16:09:02.793Z,9.76
2023-02-19T16:11:26.791Z,9.77
2023-02-19T16:13:31.592Z,9.55
2023-02-19T16:15:34.461Z,9.61
2023-02-19T16:17:37.331Z,9.45
2023-02-19T16:19:47.605Z,9.44
2023-02-19T16:21:50.705Z,9.41
2023-02-19T16:23:59.233Z,9.49
2023-02-19T16:26:03.546Z,9.42
2023-02-19T16:28:14.082Z,9.37
2023-02-19T16:30:28.394Z,9.35
2023-02-19T16:32:31.398Z,9.38
2023-02-19T16:34:40.966Z,9.49
2023-02-19T16:36:46.225Z,9.48
2023-02-19T16:39:15.396Z,9.26
2023-02-19T16:41:17.982Z,9.30
2023-02-19T16:43:38.703Z,9.20
2023-02-19T16:45:42.292Z,9.13
2023-02-19T16:47:48.290Z,9.25
2023-02-19T16:49:51.267Z,8.99
2023-02-19T16:51:55.340Z,9.18
2023-02-19T16:53:58.032Z,9.11
2023-02-19T16:56:00.803Z,8.99
2023-02-19T16:58:03.586Z,8.86
2023-02-19T17:00:06.916Z,8.99
2023-02-19T17:02:18.508Z,8.88
2023-02-19T17:04:21.450Z,8.87
2023-02-19T17:06:24.314Z,8.91
2023-02-19T17:08:33.796Z,8.76
2023-02-19T17:10:36.648Z,8.86
2023-02-19T17:12:39.482Z,8.76
2023-02-19T17:14:42.273Z,8.79
2023-02-19T17:16:45.232Z,8.79
2023-02-19T17:18:48.041Z,8.68
2023-02-19T17:20:54.050Z,8.60
2023-02-19T17:22:56.973Z,8.62
2023-02-19T17:25:00.980Z,8.65
2023-02-19T17:27:03.821Z,8.63
2023-02-19T17:29:08.509Z,8.66
2023-02-19T17:31:12.254Z,8.50
2023-02-19T17:33:15.087Z,8.52
2023-02-19T17:35:17.816Z,8.62
2023-02-19T17:37:20.551Z,8.59
2023-02-19T17:39:24.022Z,8.66
2023-02-19T17:41:28.399Z,8.61
2023-02-19T17:43:31.057Z,8.70
2023-02-19T17:45:34.246Z,8.88
2023-02-19T17:47:36.901Z,8.64
2023-02-19T17:49:39.629Z,8.61
2023-02-19T17:51:42.279Z,8.78
2023-02-19T17:53:46.567Z,8.80
2023-02-19T17:55:49.292Z,8.69
2023-02-19T17:57:53.812Z,8.58
2023-02-19T17:59:56.472Z,8.75
2023-02-19T18:01:59.095Z,8.70
2023-02-19T18:04:01.873Z,8.67
2023-02-19T18:06:05.031Z,8.61
2023-02-19T18:08:07.696Z,8.65
2023-02-19T18:10:11.190Z,8.60
2023-02-19T18:12:13.850Z,8.49
2023-02-19T18:14:17.756Z,8.71
2023-02-19T18:16:20.803Z,8.77
2023-02-19T18:18:24.207Z,8.65
2023-02-19T18:20:28.821Z,8.68
2023-02-19T18:22:32.100Z,8.66
2023-02-19T18:24:34.757Z,8.77
2023-02-19T18:26:37.431Z,8.76
2023-02-19T18:28:40.552Z,8.61
2023-02-19T18:30:44.675Z,8.79
2023-02-19T18:32:48.641Z,8.64
2023-02-19T18:34:51.803Z,8.72
2023-02-19T18:36:54.491Z,8.54
2023-02-19T18:38:57.164Z,8.51
2023-02-19T18:40:59.800Z,8.54
2023-02-19T18:43:02.698Z,8.51
2023-02-19T18:45:05.831Z,8.52
2023-02-19T18:47:11.440Z,8.60
2023-02-19T18:49:14.600Z,8.56
2023-02-19T18:51:17.329Z,8.56
2023-02-19T18:53:20.004Z,8.55
2023-02-19T18:55:22.709Z,8.49
2023-02-19T18:57:26.447Z,8.48
2023-02-19T18:59:29.023Z,8.55
2023-02-19T19:01:31.724Z,8.59
2023-02-19T19:03:36.109Z,8.56
2023-02-19T19:05:38.735Z,8.47
2023-02-19T19:07:41.411Z,8.63
2023-02-19T19:09:44.127Z,8.54
2023-02-19T19:11:47.459Z,8.64
2023-02-19T19:13:50.092Z,8.70
2023-02-19T19:15:52.838Z,8.42
2023-02-19T19:17:55.532Z,8.54
2023-02-19T19:19:59.518Z,8.56
2023-02-19T19:22:02.154Z,8.46
2023-02-19T19:24:05.362Z,8.51
2023-02-19T19:26:08.127Z,8.40
2023-02-19T19:28:10.815Z,8.57
2023-02-19T19:30:14.385Z,8.48
2023-02-19T19:32:17.101Z,8.54
2023-02-19T19:34:20.046Z,8.54
2023-02-19T19:36:24.124Z,8.67
2023-02-19T19:38:26.801Z,8.61
2023-02-19T19:40:29.498Z,8.60
2023-02-19T19:42:32.130Z,8.71
2023-02-19T19:44:34.768Z,8.61
2023-02-19T19:46:44.443Z,8.68
2023-02-19T19:48:47.692Z,8.56
2023-02-19T19:50:50.342Z,8.62
2023-02-19T19:52:54.419Z,8.66
2023-02-19T19:54:57.041Z,8.77
2023-02-19T19:56:59.700Z,8.62
2023-02-19T19:59:02.361Z,8.54
2023-02-19T20:01:06.038Z,8.63
2023-02-19T20:03:09.525Z,8.73
2023-02-19T20:05:12.932Z,8.47
2023-02-19T20:07:15.690Z,8.55
2023-02-19T20:09:20.833Z,8.53
2023-02-19T20:11:23.544Z,8.44
2023-02-19T20:13:28.701Z,8.62
2023-02-19T20:15:31.489Z,8.41
2023-02-19T20:17:34.129Z,8.45
2023-02-19T20:19:36.710Z,8.47
2023-02-19T20:21:39.357Z,8.44
2023-02-19T20:23:41.981Z,8.45
2023-02-19T20:25:46.017Z,8.60
2023-02-19T20:27:48.931Z,8.47
2023-02-19T20:29:51.583Z,8.41
2023-02-19T20:31:54.446Z,8.47
2023-02-19T20:33:57.104Z,8.51
2023-02-19T20:35:59.722Z,8.37
2023-02-19T20:38:02.454Z,8.43
2023-02-19T20:40:07.170Z,8.46
2023-02-19T20:42:11.210Z,8.47
2023-02-19T20:44:14.092Z,8.31
2023-02-19T20:46:16.748Z,8.19
2023-02-19T20:48:19.749Z,8.16
2023-02-19T20:50:23.258Z,8.07
2023-02-19T20:52:25.953Z,8.07
2023-02-19T20:54:30.313Z,8.03
2023-02-19T20:56:32.985Z,8.10
2023-02-19T20:58:36.958Z,8.10
2023-02-19T21:00:39.586Z,8.03
2023-02-19T21:02:42.575Z,8.12
2023-02-19T21:04:45.449Z,8.24
2023-02-19T21:06:48.107Z,8.11
2023-02-19T21:08:50.778Z,8.15
2023-02-19T21:10:54.955Z,8.21
2023-02-19T21:12:57.695Z,8.24
2023-02-19T21:15:01.622Z,8.32
2023-02-19T21:17:04.428Z,8.20
2023-02-19T21:19:07.491Z,8.08
2023-02-19T21:21:10.214Z,8.22
2023-02-19T21:23:13.924Z,8.23
2023-02-19T21:25:16.845Z,8.05
2023-02-19T21:27:19.875Z,8.16
2023-02-19T21:29:23.342Z,8.06
2023-02-19T21:31:37.241Z,8.10
2023-02-19T21:33:40.012Z,8.08
2023-02-19T21:35:42.818Z,8.11
2023-02-19T21:37:45.549Z,8.09
2023-02-19T21:39:48.161Z,8.19
2023-02-19T21:41:51.367Z,8.21
2023-02-19T21:43:54.783Z,8.08
2023-02-19T21:45:57.984Z,8.22
2023-02-19T21:48:01.999Z,8.16
2023-02-19T21:50:05.217Z,8.02
2023-02-19T21:52:07.839Z,8.03
2023-02-19T21:54:15.827Z,8.05
2023-02-19T21:56:23.260Z,8.14
2023-02-19T21:58:25.980Z,8.18
2023-02-19T22:00:28.604Z,8.12
2023-02-19T22:02:31.254Z,8.07
2023-02-19T22:04:35.313Z,8.22
2023-02-19T22:06:39.364Z,7.99
2023-02-19T22:08:41.997Z,8.09
2023-02-19T22:10:44.907Z,7.97
2023-02-19T22:12:47.710Z,7.90
2023-02-19T22:14:51.644Z,7.97
2023-02-19T22:16:54.449Z,8.02
2023-02-19T22:18:59.037Z,8.06
2023-02-19T22:21:04.879Z,7.94
2023-02-19T22:23:07.694Z,7.96
2023-02-19T22:25:10.336Z,7.90
2023-02-19T22:27:13.034Z,7.95
2023-02-19T22:29:16.501Z,7.94
2023-02-19T22:31:21.064Z,8.04
2023-02-19T22:33:24.012Z,8.02
2023-02-19T22:35:27.004Z,8.06
2023-02-19T22:37:31.000Z,8.34
2023-02-19T22:39:33.612Z,7.92
2023-02-19T22:41:36.314Z,7.89
2023-02-19T22:43:39.149Z,7.98
2023-02-19T22:45:41.735Z,8.11
2023-02-19T22:47:46.943Z,7.89
2023-02-19T22:49:49.656Z,7.91
2023-02-19T22:51:55.982Z,7.85
2023-02-19T22:54:01.454Z,7.84
2023-02-19T22:56:04.198Z,8.00
2023-02-19T22:58:06.876Z,8.00
2023-02-19T23:00:10.654Z,7.89
2023-02-19T23:02:13.299Z,7.98
2023-02-19T23:04:16.309Z,8.08
2023-02-19T23:06:23.354Z,7.97
2023-02-19T23:08:25.962Z,7.83
2023-02-19T23:10:29.965Z,7.97
2023-02-19T23:12:32.601Z,8.03
2023-02-19T23:14:35.858Z,7.80
2023-02-19T23:16:38.518Z,7.88
2023-02-19T23:18:41.192Z,7.97
2023-02-19T23:20:44.008Z,7.94
2023-02-19T23:22:46.672Z,7.90
2023-02-19T23:24:49.484Z,7.83
2023-02-19T23:26:54.172Z,7.83
2023-02-19T23:28:56.827Z,7.75
2023-02-19T23:30:59.656Z,7.68
2023-02-19T23:33:02.354Z,7.75
2023-02-19T23:35:05.292Z,7.72
2023-02-19T23:37:07.920Z,7.65
2023-02-19T23:39:11.278Z,7.75
2023-02-19T23:41:17.131Z,7.66
2023-02-19T23:43:21.611Z,7.69
2023-02-19T23:45:24.336Z,7.70
2023-02-19T23:47:28.336Z,7.60
2023-02-19T23:49:32.408Z,7.61
2023-02-19T23:51:35.421Z,7.55
2023-02-19T23:53:38.026Z,7.63
2023-02-19T23:55:40.714Z,7.53
2023-02-19T23:57:43.629Z,7.57
2023-02-19T23:59:49.054Z,7.46
